Time;durP1;ratioP1;P1;durP2;ratioP2;P2;SDS_P1;SDS_P2;PMS_P1;PMS_P2;Temp;Humidity;BMP_temperature;BMP_pressure;BME280_temperature;BME280_humidity;BME280_pressure;Samples;Min_cycle;Max_cycle;Signal;HPM_P1;HPM_P2
2023/11/02 00:00:54;;;;;;;5.88;5.05;;;;;;;11.41;67.28;93131.22;513844;28;847;-70
2023/11/02 00:01:11;;;;;;;6.18;5.50;;;;;;;11.24;67.17;93108.31;515635;28;852;-70
2023/11/02 00:01:27;;;;;;;6.03;5.43;;;;;;;11.43;66.92;93130.69;515678;28;809;-70
2023/11/02 00:01:52;;;;;;;5.72;5.10;;;;;;;11.43;67.44;93138.97;515730;28;832;-70
2023/11/02 00:02:08;;;;;;;6.25;4.78;;;;;;;11.43;66.94;93136.22;515690;28;919;-70
2023/11/02 00:02:26;;;;;;;5.60;4.88;;;;;;;11.43;66.93;93136.22;513464;28;824;-71
2023/11/02 00:02:41;;;;;;;5.43;4.93;;;;;;;11.43;66.91;93131.41;513393;28;853;-70
2023/11/02 00:02:57;;;;;;;5.70;4.70;;;;;;;11.28;66.89;93108.66;513676;28;872;-70
2023/11/02 00:03:30;;;;;;;5.87;4.90;;;;;;;11.43;66.76;93134.16;513430;28;856;-70
2023/11/02 00:03:45;;;;;;;6.57;5.38;;;;;;;11.43;66.99;93133.44;513380;28;1011;-70
2023/11/02 00:04:01;;;;;;;6.50;5.32;;;;;;;11.43;66.72;93125.88;513706;28;769;-70
2023/11/02 00:04:16;;;;;;;7.33;5.23;;;;;;;11.43;66.80;93122.41;514488;28;1200;-70
2023/11/02 00:04:32;;;;;;;6.97;5.27;;;;;;;11.43;66.59;93125.88;515818;28;1123;-70
2023/11/02 00:04:49;;;;;;;5.97;5.30;;;;;;;11.37;66.75;93117.06;517587;28;864;-70
2023/11/02 00:05:04;;;;;;;5.70;5.20;;;;;;;11.43;66.75;93127.94;517923;28;793;-70
2023/11/02 00:05:56;;;;;;;6.03;5.38;;;;;;;11.42;66.80;93129.22;517623;28;860;-70
2023/11/02 00:06:23;;;;;;;5.93;5.18;;;;;;;11.43;66.93;93134.16;515439;28;912;-70
2023/11/02 00:06:39;;;;;;;5.30;4.80;;;;;;;11.42;66.53;93126.44;515489;28;832;-70
2023/11/02 00:06:55;;;;;;;5.30;4.80;;;;;;;11.41;66.90;93122.22;515416;28;927;-70
2023/11/02 00:07:11;;;;;;;6.75;4.85;;;;;;;11.41;66.84;93128.47;515656;28;919;-71
2023/11/02 00:07:28;;;;;;;6.40;4.85;;;;;;;11.40;66.69;93129.78;515645;28;777;-71
2023/11/02 00:07:44;;;;;;;6.47;5.03;;;;;;;11.40;66.45;93132.53;512843;28;1159;-71
2023/11/02 00:07:59;;;;;;;5.93;4.82;;;;;;;11.39;66.49;93122.06;511492;29;904;-70
2023/11/02 00:08:16;;;;;;;5.70;4.90;;;;;;;11.37;66.41;93125.38;511642;29;860;-71
2023/11/02 00:08:33;;;;;;;6.65;4.97;;;;;;;11.39;66.78;93133.13;511711;29;848;-70
2023/11/02 00:09:00;;;;;;;6.22;4.80;;;;;;;11.37;66.65;93124.63;511425;29;825;-70
2023/11/02 00:09:28;;;;;;;5.93;4.50;;;;;;;11.35;66.60;93127.97;511615;29;872;-71
2023/11/02 00:09:43;;;;;;;6.90;4.67;;;;;;;11.35;66.64;93127.22;513304;28;924;-71
2023/11/02 00:09:59;;;;;;;6.88;4.85;;;;;;;11.35;66.50;93127.22;513719;28;828;-70
2023/11/02 00:10:14;;;;;;;6.93;5.20;;;;;;;11.34;66.62;93126.50;513506;28;800;-71
2023/11/02 00:10:29;;;;;;;6.90;5.20;;;;;;;11.33;66.79;93127.03;513453;28;761;-71
2023/11/02 00:10:45;;;;;;;7.10;5.27;;;;;;;11.33;66.70;93127.78;513484;28;777;-70
2023/11/02 00:11:06;;;;;;;7.50;5.60;;;;;;;11.32;66.80;93131.13;513695;28;777;-71
2023/11/02 00:12:02;;;;;;;6.75;5.68;;;;;;;11.33;67.05;93127.03;513703;28;967;-71
2023/11/02 00:12:26;;;;;;;7.50;5.65;;;;;;;11.31;67.11;93137.94;509299;29;897;-70
2023/11/02 00:12:42;;;;;;;5.82;5.32;;;;;;;11.26;67.22;93136.84;509428;29;1981;-71
2023/11/02 00:12:57;;;;;;;6.32;5.35;;;;;;;11.24;67.31;93144.25;509448;29;758;-70
2023/11/02 00:13:24;;;;;;;7.87;5.70;;;;;;;11.18;67.64;93129.88;509275;29;983;-71
2023/11/02 00:13:39;;;;;;;6.30;4.93;;;;;;;11.20;67.69;93136.31;509253;29;822;-70
2023/11/02 00:13:54;;;;;;;6.10;5.13;;;;;;;11.20;67.57;93135.59;509421;29;1174;-70
2023/11/02 00:14:10;;;;;;;6.53;5.17;;;;;;;11.22;67.84;93138.53;509493;29;829;-70
2023/11/02 00:14:34;;;;;;;6.57;5.20;;;;;;;11.23;67.85;93140.00;509362;29;849;-70
2023/11/02 00:14:51;;;;;;;6.75;5.40;;;;;;;11.19;67.95;93134.13;509380;29;805;-71
2023/11/02 00:15:07;;;;;;;5.75;5.07;;;;;;;11.23;67.81;93137.97;509367;29;942;-71
2023/11/02 00:15:23;;;;;;;6.10;5.50;;;;;;;11.25;67.76;93134.66;509445;29;1135;-71
2023/11/02 00:15:39;;;;;;;6.53;5.87;;;;;;;11.27;67.95;93148.63;509341;29;929;-70
2023/11/02 00:15:54;;;;;;;6.68;5.95;;;;;;;11.27;68.15;93140.34;509454;29;919;-70
2023/11/02 00:16:10;;;;;;;7.65;5.70;;;;;;;11.27;68.04;93140.34;508959;29;1151;-71
2023/11/02 00:16:26;;;;;;;7.20;4.85;;;;;;;11.27;68.03;93130.03;509409;29;881;-71
2023/11/02 00:16:41;;;;;;;6.90;4.57;;;;;;;11.21;68.09;93140.56;509319;29;876;-70
2023/11/02 00:16:57;;;;;;;6.57;5.03;;;;;;;11.18;67.86;93135.41;509487;29;911;-71
2023/11/02 00:17:35;;;;;;;6.40;4.97;;;;;;;11.18;67.76;93138.91;509347;29;819;-70
2023/11/02 00:17:51;;;;;;;5.47;4.63;;;;;;;11.19;67.68;93137.63;509193;29;1392;-70
2023/11/02 00:18:07;;;;;;;5.97;4.83;;;;;;;10.97;67.49;93104.59;509254;29;837;-71
2023/11/02 00:18:23;;;;;;;6.80;4.93;;;;;;;11.21;67.79;93129.53;514591;28;1138;-70
2023/11/02 00:18:39;;;;;;;5.47;4.65;;;;;;;11.22;67.46;93130.22;515466;28;880;-71
2023/11/02 00:18:54;;;;;;;5.60;4.90;;;;;;;11.23;67.55;93137.25;513438;28;769;-71
2023/11/02 00:19:35;;;;;;;5.97;4.90;;;;;;;11.20;67.41;93127.31;513504;28;836;-70
2023/11/02 00:19:50;;;;;;;5.30;4.68;;;;;;;11.25;67.39;93129.88;513471;28;813;-70
2023/11/02 00:20:08;;;;;;;5.77;5.07;;;;;;;11.10;67.62;93104.34;513641;28;840;-70
2023/11/02 00:20:34;;;;;;;6.35;5.03;;;;;;;11.26;67.58;93127.84;513522;28;801;-71
2023/11/02 00:20:50;;;;;;;6.60;5.35;;;;;;;11.27;67.42;93126.53;514743;28;1078;-70
2023/11/02 00:21:07;;;;;;;6.13;5.07;;;;;;;11.27;67.52;93118.25;513493;28;841;-71
2023/11/02 00:21:27;;;;;;;5.55;4.75;;;;;;;11.27;67.89;93124.50;513563;28;864;-70
2023/11/02 00:21:42;;;;;;;4.95;4.45;;;;;;;11.28;67.84;93116.97;513443;28;877;-70
2023/11/02 00:22:06;;;;;;;6.15;4.68;;;;;;;11.28;67.81;93120.44;513457;28;908;-70
2023/11/02 00:22:21;;;;;;;5.78;5.18;;;;;;;11.29;67.90;93119.16;513332;28;888;-70
2023/11/02 00:22:44;;;;;;;5.73;5.00;;;;;;;11.29;68.00;93119.16;513586;28;762;-70
2023/11/02 00:23:00;;;;;;;6.50;5.55;;;;;;;11.29;67.89;93126.69;514610;28;805;-71
2023/11/02 00:23:34;;;;;;;5.55;5.05;;;;;;;11.31;67.84;93121.34;515698;28;911;-71
2023/11/02 00:23:50;;;;;;;6.05;5.05;;;;;;;11.31;68.00;93121.34;515395;28;913;-70
2023/11/02 00:24:06;;;;;;;4.87;4.37;;;;;;;11.30;67.80;93126.13;515482;28;912;-70
2023/11/02 00:24:21;;;;;;;5.72;4.68;;;;;;;11.32;68.10;93122.81;515534;28;836;-70
2023/11/02 00:24:41;;;;;;;7.27;5.27;;;;;;;11.18;68.08;93102.25;515700;28;777;-70
2023/11/02 00:25:05;;;;;;;6.53;4.85;;;;;;;11.24;67.83;93111.09;515627;28;821;-71
2023/11/02 00:25:49;;;;;;;7.15;5.00;;;;;;;11.31;67.78;93124.84;513566;28;817;-70
2023/11/02 00:26:04;;;;;;;6.03;5.38;;;;;;;11.31;68.27;93132.41;513635;28;959;-70
2023/11/02 00:26:20;;;;;;;7.30;5.63;;;;;;;11.30;68.08;93128.91;513476;28;856;-71
2023/11/02 00:26:35;;;;;;;7.97;5.90;;;;;;;11.31;68.01;93133.13;513495;28;825;-70
2023/11/02 00:26:51;;;;;;;7.10;5.47;;;;;;;11.30;68.47;93134.44;511314;29;857;-70
2023/11/02 00:27:07;;;;;;;6.95;5.60;;;;;;;11.31;68.16;93130.38;511614;28;881;-71
2023/11/02 00:27:23;;;;;;;7.13;5.88;;;;;;;11.32;68.44;93133.88;513483;28;919;-70
2023/11/02 00:27:39;;;;;;;7.15;5.43;;;;;;;11.33;68.34;93125.03;513317;28;1019;-70
2023/11/02 00:27:54;;;;;;;7.10;5.40;;;;;;;11.32;68.50;93126.34;513477;28;849;-70
2023/11/02 00:28:10;;;;;;;6.10;5.37;;;;;;;11.27;68.50;93118.97;513646;28;785;-71
2023/11/02 00:28:25;;;;;;;6.55;5.25;;;;;;;11.29;68.52;93132.22;513509;28;848;-71
2023/11/02 00:28:41;;;;;;;8.27;5.70;;;;;;;11.28;68.25;93133.53;513850;28;860;-70
2023/11/02 00:28:56;;;;;;;8.75;5.68;;;;;;;11.27;68.53;93132.06;515621;28;820;-71
2023/11/02 00:29:12;;;;;;;7.63;5.27;;;;;;;11.27;68.43;93137.59;515865;28;781;-70
2023/11/02 00:29:27;;;;;;;6.87;4.97;;;;;;;11.28;68.61;93130.78;515701;28;817;-71
2023/11/02 00:29:42;;;;;;;8.60;5.10;;;;;;;11.29;68.44;93129.47;515716;28;777;-71
2023/11/02 00:29:58;;;;;;;7.53;4.87;;;;;;;11.30;68.61;93130.94;515731;28;814;-70
2023/11/02 00:30:14;;;;;;;5.53;4.83;;;;;;;11.30;68.52;93131.66;515712;28;849;-71
2023/11/02 00:30:30;;;;;;;6.07;5.35;;;;;;;11.31;68.22;93124.09;515576;28;840;-71
2023/11/02 00:30:47;;;;;;;6.80;5.07;;;;;;;11.30;68.31;93122.66;515348;28;860;-70
2023/11/02 00:31:05;;;;;;;6.50;5.10;;;;;;;11.35;67.93;93127.22;515668;28;823;-71
2023/11/02 00:31:21;;;;;;;6.45;5.50;;;;;;;11.36;67.97;93125.94;515781;28;931;-70
2023/11/02 00:31:36;;;;;;;6.90;4.93;;;;;;;11.36;67.73;93125.94;515565;28;924;-70
2023/11/02 00:31:52;;;;;;;6.93;4.53;;;;;;;11.37;67.67;93130.16;515533;28;793;-70
2023/11/02 00:32:08;;;;;;;6.47;4.93;;;;;;;11.26;67.61;93109.22;515609;28;807;-70
2023/11/02 00:32:24;;;;;;;7.18;5.18;;;;;;;11.37;67.79;93125.38;515922;28;844;-70
2023/11/02 00:32:39;;;;;;;8.05;5.38;;;;;;;11.37;67.72;93125.38;515470;28;1919;-70
2023/11/02 00:32:55;;;;;;;6.93;5.40;;;;;;;11.38;67.33;93124.06;515567;28;742;-70
2023/11/02 00:33:13;;;;;;;6.97;5.13;;;;;;;11.35;67.48;93116.91;515695;28;839;-70
2023/11/02 00:33:28;;;;;;;8.35;5.32;;;;;;;11.38;67.38;93117.81;515610;28;917;-70
2023/11/02 00:33:43;;;;;;;6.88;5.38;;;;;;;11.37;67.76;93116.31;515917;28;836;-70
2023/11/02 00:33:59;;;;;;;6.20;5.37;;;;;;;11.38;67.58;93117.81;515568;28;769;-70
2023/11/02 00:34:14;;;;;;;7.07;5.40;;;;;;;11.35;67.78;93114.13;515519;28;1002;-69
2023/11/02 00:34:30;;;;;;;6.70;5.22;;;;;;;11.35;67.85;93116.16;515780;28;742;-70
2023/11/02 00:34:46;;;;;;;6.32;5.40;;;;;;;11.33;67.83;93116.72;515642;28;875;-70
2023/11/02 00:35:01;;;;;;;6.93;5.25;;;;;;;11.32;67.48;93109.75;515572;28;832;-70
2023/11/02 00:35:17;;;;;;;6.40;4.53;;;;;;;11.31;67.60;93108.28;515627;28;833;-70
2023/11/02 00:35:32;;;;;;;6.50;4.00;;;;;;;11.32;67.64;93106.25;515743;28;835;-70
2023/11/02 00:35:49;;;;;;;6.82;4.05;;;;;;;11.32;67.66;93100.72;515567;28;947;-70
2023/11/02 00:36:05;;;;;;;5.05;4.35;;;;;;;11.32;67.62;93106.25;515626;28;856;-70
2023/11/02 00:36:22;;;;;;;5.55;4.95;;;;;;;11.30;67.44;93108.84;513318;28;1668;-71
2023/11/02 00:36:37;;;;;;;6.22;4.90;;;;;;;11.29;67.63;93102.56;513433;28;951;-70
2023/11/02 00:36:53;;;;;;;6.37;4.57;;;;;;;11.30;67.48;93103.31;513356;28;916;-70
2023/11/02 00:37:09;;;;;;;5.65;4.25;;;;;;;11.29;67.60;93110.88;513307;28;908;-71
2023/11/02 00:37:24;;;;;;;5.47;4.13;;;;;;;11.30;67.52;93106.06;513485;28;856;-71
2023/11/02 00:37:39;;;;;;;4.75;4.15;;;;;;;11.28;67.64;93103.84;513520;28;829;-71
2023/11/02 00:37:55;;;;;;;4.63;4.20;;;;;;;11.28;67.40;93109.38;513564;28;789;-70
2023/11/02 00:38:11;;;;;;;5.53;4.30;;;;;;;11.27;67.83;93110.69;513956;28;1227;-70
2023/11/02 00:38:27;;;;;;;6.05;4.20;;;;;;;11.28;67.54;93111.44;515656;28;849;-70
2023/11/02 00:38:43;;;;;;;6.40;5.20;;;;;;;11.28;67.71;93108.66;515699;28;919;-70
2023/11/02 00:38:58;;;;;;;5.88;5.28;;;;;;;11.27;67.92;93109.94;513500;28;849;-70
2023/11/02 00:39:14;;;;;;;5.10;4.60;;;;;;;11.27;67.65;93107.19;513386;28;1172;-71
2023/11/02 00:39:29;;;;;;;5.87;4.70;;;;;;;11.26;67.56;93111.25;513429;28;812;-70
2023/11/02 00:39:45;;;;;;;6.63;4.30;;;;;;;11.24;67.64;93109.03;513602;28;1067;-70
2023/11/02 00:40:01;;;;;;;7.97;4.47;;;;;;;11.23;67.55;93102.06;513605;28;1051;-71
2023/11/02 00:40:16;;;;;;;6.10;4.23;;;;;;;11.23;67.75;93106.84;513413;28;838;-71
2023/11/02 00:40:32;;;;;;;3.97;3.57;;;;;;;11.22;67.92;93103.34;513496;28;745;-70
2023/11/02 00:40:47;;;;;;;4.93;4.00;;;;;;;11.23;67.80;93112.38;514139;28;900;-71
2023/11/02 00:41:03;;;;;;;5.67;4.20;;;;;;;11.22;68.10;93102.59;515457;28;966;-71
2023/11/02 00:41:18;;;;;;;6.22;4.50;;;;;;;11.23;68.13;93104.09;513364;28;868;-70
2023/11/02 00:41:35;;;;;;;5.13;4.33;;;;;;;11.22;68.46;93108.13;513482;28;828;-70
2023/11/02 00:41:50;;;;;;;4.70;4.25;;;;;;;11.22;68.46;93108.88;511640;29;814;-70
2023/11/02 00:42:06;;;;;;;5.53;4.47;;;;;;;11.21;68.38;93114.97;511242;29;869;-70
2023/11/02 00:42:23;;;;;;;5.67;4.40;;;;;;;11.21;68.44;93106.69;511222;28;837;-70
2023/11/02 00:42:38;;;;;;;5.93;4.70;;;;;;;11.21;68.53;93101.16;511366;29;1005;-71
2023/11/02 00:42:53;;;;;;;5.93;4.73;;;;;;;11.22;68.62;93108.13;511568;29;936;-71
2023/11/02 00:43:09;;;;;;;5.47;4.40;;;;;;;11.22;68.44;93099.84;511656;28;949;-71
2023/11/02 00:43:25;;;;;;;5.90;4.33;;;;;;;11.04;68.38;93078.97;513566;28;927;-71
2023/11/02 00:43:40;;;;;;;4.95;4.22;;;;;;;11.21;68.30;93101.88;514194;28;828;-70
2023/11/02 00:43:56;;;;;;;4.63;4.22;;;;;;;11.23;68.37;93101.31;515659;28;797;-71
2023/11/02 00:44:12;;;;;;;5.00;4.50;;;;;;;11.23;68.67;93098.56;515425;28;777;-70
2023/11/02 00:44:27;;;;;;;5.47;4.53;;;;;;;11.24;68.42;93100.03;515442;28;856;-70
2023/11/02 00:44:46;;;;;;;4.97;4.40;;;;;;;11.24;68.63;93097.28;515404;28;1091;-71
2023/11/02 00:45:02;;;;;;;4.72;4.32;;;;;;;11.23;68.42;93093.78;515554;28;872;-71
2023/11/02 00:45:18;;;;;;;4.87;4.37;;;;;;;11.23;68.21;93102.06;513213;28;2382;-71
2023/11/02 00:45:38;;;;;;;4.88;4.30;;;;;;;11.23;68.10;93098.56;513418;28;1017;-70
2023/11/02 00:45:54;;;;;;;4.30;3.90;;;;;;;11.24;68.46;93100.75;513527;28;887;-70
2023/11/02 00:46:10;;;;;;;4.78;4.07;;;;;;;11.12;68.52;93090.69;513412;28;873;-71
2023/11/02 00:46:25;;;;;;;5.32;4.60;;;;;;;11.25;68.52;93101.50;513522;28;881;-71
2023/11/02 00:46:43;;;;;;;5.20;4.60;;;;;;;11.25;68.17;93102.22;513390;28;1401;-70
2023/11/02 00:46:59;;;;;;;5.13;4.50;;;;;;;11.26;68.11;93094.69;513377;28;899;-71
2023/11/02 00:47:16;;;;;;;6.55;4.65;;;;;;;11.25;68.11;93102.22;513511;28;850;-70
2023/11/02 00:47:32;;;;;;;6.85;4.72;;;;;;;11.15;67.87;93081.28;513381;28;928;-71
2023/11/02 00:47:48;;;;;;;5.15;4.30;;;;;;;11.27;68.03;93099.63;513528;28;1329;-70
2023/11/02 00:48:17;;;;;;;4.82;4.32;;;;;;;11.27;67.98;93096.88;513456;28;809;-71
2023/11/02 00:48:33;;;;;;;5.78;4.63;;;;;;;11.27;67.92;93090.59;511465;29;858;-70
2023/11/02 00:48:49;;;;;;;5.07;4.40;;;;;;;11.27;68.30;93096.88;511251;28;2170;-70
2023/11/02 00:49:05;;;;;;;5.60;4.53;;;;;;;11.27;68.31;93093.38;511446;28;884;-70
2023/11/02 00:49:22;;;;;;;5.83;4.37;;;;;;;11.26;68.26;93100.22;511253;29;852;-70
2023/11/02 00:49:39;;;;;;;4.90;4.13;;;;;;;11.27;68.43;93090.59;509334;29;801;-71
2023/11/02 00:49:57;;;;;;;5.13;4.40;;;;;;;11.27;68.14;93088.59;509682;29;907;-70
2023/11/02 00:51:04;;;;;;;5.07;4.57;;;;;;;11.29;67.90;93088.75;509597;29;994;-70
2023/11/02 00:51:28;;;;;;;4.80;3.63;;;;;;;11.28;67.82;93089.31;508087;29;1760;-70
2023/11/02 00:51:43;;;;;;;6.30;4.18;;;;;;;11.26;68.10;93092.63;513344;28;923;-70
2023/11/02 00:52:01;;;;;;;4.73;3.93;;;;;;;11.27;68.03;93090.59;513646;28;869;-70
2023/11/02 00:52:17;;;;;;;5.00;4.07;;;;;;;11.28;67.71;93089.31;513551;28;871;-70
2023/11/02 00:52:32;;;;;;;5.32;4.18;;;;;;;11.27;67.79;93091.34;513396;28;872;-70
2023/11/02 00:52:47;;;;;;;4.83;4.33;;;;;;;11.27;68.02;93088.59;513323;28;1918;-70
2023/11/02 00:53:03;;;;;;;4.83;4.30;;;;;;;11.26;67.84;93089.88;513678;28;777;-71
2023/11/02 00:53:19;;;;;;;4.97;4.00;;;;;;;11.27;68.04;93093.38;515110;28;809;-70
2023/11/02 00:53:36;;;;;;;4.67;4.13;;;;;;;11.23;68.12;93093.78;515342;28;786;-70
2023/11/02 00:53:57;;;;;;;5.15;4.15;;;;;;;11.26;67.97;93095.41;515352;28;857;-70
2023/11/02 00:54:32;;;;;;;4.30;3.90;;;;;;;11.26;67.90;93097.44;515338;28;1117;-70
2023/11/02 00:54:57;;;;;;;5.20;4.38;;;;;;;11.26;68.16;93098.16;513647;28;1937;-70
2023/11/02 00:55:33;;;;;;;4.57;4.18;;;;;;;11.27;67.83;93094.09;513531;28;884;-70
2023/11/02 00:55:49;;;;;;;4.35;3.95;;;;;;;11.24;67.89;93092.47;513628;28;872;-70
2023/11/02 00:56:06;;;;;;;4.47;4.07;;;;;;;11.24;68.27;93091.75;513447;28;849;-70
2023/11/02 00:56:24;;;;;;;4.82;3.85;;;;;;;11.24;68.37;93095.22;513163;28;908;-71
2023/11/02 00:56:39;;;;;;;5.30;3.90;;;;;;;11.24;68.27;93094.50;514938;28;1808;-70
2023/11/02 00:56:55;;;;;;;4.95;4.10;;;;;;;11.24;68.38;93094.50;515304;28;829;-70
2023/11/02 00:57:14;;;;;;;5.13;4.23;;;;;;;11.25;68.42;93096.69;515479;28;809;-70
2023/11/02 00:57:40;;;;;;;5.13;3.97;;;;;;;11.26;68.54;93094.69;515182;28;893;-70
2023/11/02 00:57:57;;;;;;;4.68;3.70;;;;;;;11.24;68.36;93097.28;514060;28;1578;-71
2023/11/02 00:58:12;;;;;;;4.95;3.78;;;;;;;11.23;68.40;93095.78;513409;28;836;-70
2023/11/02 00:58:29;;;;;;;4.18;3.78;;;;;;;11.16;68.47;93083.50;513330;28;778;-71
2023/11/02 00:58:49;;;;;;;4.22;3.83;;;;;;;11.26;68.77;93097.44;513229;28;908;-71
2023/11/02 00:59:05;;;;;;;6.18;4.15;;;;;;;11.27;68.65;93096.13;513445;28;825;-71
2023/11/02 00:59:20;;;;;;;6.30;4.33;;;;;;;11.27;68.75;93098.91;513566;28;841;-70
2023/11/02 00:59:38;;;;;;;6.32;4.30;;;;;;;11.28;69.02;93097.63;513358;28;832;-70
2023/11/02 00:59:55;;;;;;;5.07;3.95;;;;;;;11.28;68.95;93100.38;513359;28;813;-70
2023/11/02 01:00:49;;;;;;;4.28;3.88;;;;;;;11.27;68.61;93099.63;513490;28;817;-71
2023/11/02 01:01:08;;;;;;;4.78;4.28;;;;;;;11.23;68.41;93102.06;513859;28;805;-70
2023/11/02 01:01:26;;;;;;;4.60;4.00;;;;;;;11.22;68.71;93105.38;513747;28;901;-70
2023/11/02 01:01:42;;;;;;;4.45;4.05;;;;;;;11.19;68.94;93100.97;513588;28;857;-71
2023/11/02 01:01:57;;;;;;;4.72;4.20;;;;;;;11.16;68.73;93099.31;513303;28;923;-71
2023/11/02 01:02:14;;;;;;;4.13;3.73;;;;;;;11.13;68.67;93103.22;513225;28;798;-70
2023/11/02 01:02:36;;;;;;;3.90;3.50;;;;;;;11.10;68.72;93104.34;513552;28;868;-71
2023/11/02 01:02:51;;;;;;;4.72;3.78;;;;;;;11.10;68.77;93101.56;513430;28;877;-70
2023/11/02 01:03:06;;;;;;;4.77;3.90;;;;;;;11.09;68.70;93100.09;513445;28;876;-71
2023/11/02 01:03:24;;;;;;;6.05;3.88;;;;;;;11.11;68.71;93100.28;513278;28;817;-71
2023/11/02 01:03:41;;;;;;;5.97;4.07;;;;;;;11.12;68.85;93104.50;513480;28;899;-71
2023/11/02 01:04:02;;;;;;;4.78;4.07;;;;;;;11.13;68.50;93108.75;513336;28;839;-71
2023/11/02 01:04:36;;;;;;;4.38;3.95;;;;;;;11.18;68.61;93094.72;513384;28;837;-71
2023/11/02 01:04:54;;;;;;;5.22;3.90;;;;;;;11.19;68.63;93098.22;511365;29;955;-70
2023/11/02 01:05:21;;;;;;;4.53;3.65;;;;;;;11.16;68.59;93085.50;511348;29;938;-71
2023/11/02 01:05:37;;;;;;;4.57;4.18;;;;;;;11.24;68.13;93100.03;511660;29;880;-71
2023/11/02 01:05:52;;;;;;;4.43;3.88;;;;;;;11.24;68.34;93094.50;512603;28;761;-70
2023/11/02 01:06:20;;;;;;;4.83;3.80;;;;;;;11.26;68.37;93092.63;513135;28;1144;-70
2023/11/02 01:06:35;;;;;;;5.15;4.43;;;;;;;11.27;68.05;93088.59;513406;28;914;-71
2023/11/02 01:06:51;;;;;;;5.20;4.57;;;;;;;11.27;67.98;93090.59;513188;28;856;-70
2023/11/02 01:07:06;;;;;;;5.07;4.53;;;;;;;11.29;67.97;93096.31;513513;28;1213;-70
2023/11/02 01:07:23;;;;;;;7.63;4.57;;;;;;;11.29;67.89;93093.53;517546;28;883;-70
2023/11/02 01:07:39;;;;;;;8.43;4.95;;;;;;;11.31;68.24;93096.47;515603;28;860;-71
2023/11/02 01:07:54;;;;;;;5.90;4.60;;;;;;;11.28;67.96;93089.31;513200;28;1496;-70
2023/11/02 01:08:13;;;;;;;5.50;4.30;;;;;;;11.26;68.17;93087.09;513311;28;824;-70
2023/11/02 01:08:31;;;;;;;6.88;4.57;;;;;;;11.32;67.76;93092.44;511374;29;817;-70
2023/11/02 01:09:04;;;;;;;6.07;4.15;;;;;;;11.32;67.86;93095.19;511398;29;873;-71
2023/11/02 01:09:46;;;;;;;6.55;4.30;;;;;;;11.31;67.84;93099.22;511240;29;928;-70
2023/11/02 01:10:04;;;;;;;5.35;4.10;;;;;;;11.31;67.74;93088.19;511194;28;1167;-70
2023/11/02 01:10:22;;;;;;;5.40;4.20;;;;;;;11.31;67.97;93093.72;511060;28;2289;-70
2023/11/02 01:10:37;;;;;;;4.57;3.70;;;;;;;11.32;67.99;93095.94;511449;29;885;-70
2023/11/02 01:10:52;;;;;;;4.20;3.73;;;;;;;11.31;67.80;93091.69;511676;29;1086;-71
2023/11/02 01:11:09;;;;;;;4.33;3.93;;;;;;;11.31;67.71;93099.22;511411;28;1074;-71
2023/11/02 01:11:32;;;;;;;4.68;4.10;;;;;;;11.31;67.50;93088.91;513541;28;939;-71
2023/11/02 01:11:48;;;;;;;4.22;3.83;;;;;;;11.31;67.74;93093.72;513600;28;835;-70
2023/11/02 01:12:06;;;;;;;4.28;3.67;;;;;;;11.18;67.71;93069.09;513676;28;899;-71
2023/11/02 01:12:33;;;;;;;4.68;3.65;;;;;;;11.33;67.57;93099.41;513492;28;860;-71
2023/11/02 01:12:48;;;;;;;5.05;3.92;;;;;;;11.32;67.59;93098.69;513218;28;1980;-70
2023/11/02 01:13:14;;;;;;;5.40;3.73;;;;;;;11.32;67.37;93095.94;513522;28;809;-71
2023/11/02 01:13:29;;;;;;;3.58;3.28;;;;;;;11.32;67.68;93093.16;513569;28;857;-70
2023/11/02 01:13:45;;;;;;;6.10;3.50;;;;;;;11.33;67.40;93096.66;513641;28;880;-70
2023/11/02 01:14:09;;;;;;;6.77;3.57;;;;;;;11.32;67.49;93095.19;513695;28;852;-70
2023/11/02 01:14:42;;;;;;;4.43;3.65;;;;;;;11.30;67.31;93092.97;513735;28;888;-70
2023/11/02 01:14:58;;;;;;;3.55;3.10;;;;;;;11.29;67.28;93096.31;513411;28;848;-70
2023/11/02 01:15:32;;;;;;;3.80;3.40;;;;;;;11.28;67.66;93098.31;513666;28;872;-71
2023/11/02 01:16:07;;;;;;;4.03;3.30;;;;;;;11.29;67.65;93099.06;513701;28;888;-70
2023/11/02 01:16:23;;;;;;;3.97;3.60;;;;;;;11.28;67.63;93100.38;513496;28;813;-70
2023/11/02 01:16:38;;;;;;;3.85;3.33;;;;;;;11.29;67.24;93099.06;513196;28;901;-70
2023/11/02 01:16:54;;;;;;;5.20;3.85;;;;;;;11.28;67.26;93101.09;513379;28;837;-70
2023/11/02 01:17:52;;;;;;;5.23;3.80;;;;;;;11.29;67.33;93099.06;513467;28;840;-70
2023/11/02 01:18:11;;;;;;;3.92;3.60;;;;;;;11.27;67.27;93098.91;507192;29;790;-71
2023/11/02 01:18:26;;;;;;;5.03;3.78;;;;;;;11.25;67.76;93095.97;507425;29;1575;-70
2023/11/02 01:18:45;;;;;;;3.58;3.08;;;;;;;11.25;67.25;93101.50;509114;29;1345;-71
2023/11/02 01:19:00;;;;;;;3.60;3.20;;;;;;;11.25;67.64;93095.97;509271;29;897;-70
2023/11/02 01:19:55;;;;;;;4.43;3.17;;;;;;;11.22;67.99;93099.84;507494;29;865;-70
2023/11/02 01:20:14;;;;;;;3.50;3.20;;;;;;;11.20;67.79;93099.66;505222;29;1160;-70
2023/11/02 01:20:59;;;;;;;3.50;3.10;;;;;;;11.19;67.89;93100.97;505268;29;840;-70
2023/11/02 01:21:15;;;;;;;3.13;2.83;;;;;;;11.16;68.02;93100.06;506869;29;790;-70
2023/11/02 01:21:31;;;;;;;3.45;3.05;;;;;;;11.15;67.83;93090.28;507311;29;805;-70
2023/11/02 01:21:46;;;;;;;3.60;2.90;;;;;;;11.16;68.02;93094.53;507424;29;1233;-71
2023/11/02 01:22:02;;;;;;;3.10;2.73;;;;;;;11.15;68.17;93095.81;507579;29;778;-71
2023/11/02 01:22:29;;;;;;;3.30;3.00;;;;;;;11.16;68.32;93093.78;505403;29;932;-70
2023/11/02 01:22:52;;;;;;;3.05;2.75;;;;;;;11.16;68.16;93091.03;505316;29;848;-70
2023/11/02 01:23:09;;;;;;;4.05;3.10;;;;;;;11.15;68.19;93095.09;507465;29;829;-70
2023/11/02 01:23:24;;;;;;;3.47;3.00;;;;;;;11.15;68.38;93089.59;505476;29;936;-71
2023/11/02 01:23:41;;;;;;;3.42;2.92;;;;;;;11.15;68.13;93095.09;505376;29;877;-71
2023/11/02 01:24:02;;;;;;;3.30;3.00;;;;;;;11.11;68.39;93092.00;505284;29;841;-70
2023/11/02 01:24:22;;;;;;;2.88;2.67;;;;;;;11.07;68.96;93095.13;512654;28;1110;-71
2023/11/02 01:24:39;;;;;;;2.97;2.67;;;;;;;11.06;68.67;93101.97;513271;28;889;-71
2023/11/02 01:25:01;;;;;;;3.75;3.10;;;;;;;11.06;68.77;93095.69;513140;28;1708;-70
2023/11/02 01:25:17;;;;;;;3.92;3.38;;;;;;;11.06;69.20;93096.44;513251;28;963;-71
2023/11/02 01:25:41;;;;;;;4.00;3.55;;;;;;;11.07;68.89;93097.16;513702;28;943;-71
2023/11/02 01:25:57;;;;;;;3.20;2.72;;;;;;;11.08;68.96;93096.63;513667;28;911;-70
2023/11/02 01:26:50;;;;;;;3.20;2.90;;;;;;;11.10;69.20;93101.56;513465;28;773;-71
2023/11/02 01:27:08;;;;;;;3.80;3.00;;;;;;;11.07;69.32;93097.16;513407;28;852;-71
2023/11/02 01:27:28;;;;;;;3.03;2.75;;;;;;;11.06;69.23;93098.47;515405;28;827;-71
2023/11/02 01:27:43;;;;;;;3.53;3.22;;;;;;;11.05;69.18;93096.97;515332;28;801;-70
2023/11/02 01:28:01;;;;;;;4.20;3.50;;;;;;;11.06;69.22;93101.97;513566;28;773;-71
2023/11/02 01:28:20;;;;;;;3.70;3.10;;;;;;;11.05;69.31;93100.50;513190;28;832;-71
2023/11/02 01:28:49;;;;;;;3.60;2.80;;;;;;;11.06;69.31;93098.47;513370;28;982;-70
2023/11/02 01:29:04;;;;;;;3.95;2.90;;;;;;;11.05;69.42;93094.97;513460;28;915;-71
2023/11/02 01:29:20;;;;;;;3.30;2.60;;;;;;;11.05;69.27;93094.97;511284;29;766;-71
2023/11/02 01:29:35;;;;;;;2.58;2.38;;;;;;;11.05;69.39;93100.50;511287;29;1635;-70
2023/11/02 01:29:50;;;;;;;3.33;2.33;;;;;;;11.06;69.21;93099.22;512024;28;782;-70
2023/11/02 01:30:40;;;;;;;3.70;2.63;;;;;;;11.10;69.00;93104.34;513458;28;761;-70
2023/11/02 01:30:59;;;;;;;4.95;2.85;;;;;;;11.10;68.60;93098.81;513066;28;2182;-70
2023/11/02 01:31:17;;;;;;;4.55;2.92;;;;;;;11.12;68.75;93101.75;513303;28;805;-70
2023/11/02 01:31:35;;;;;;;4.20;2.78;;;;;;;11.13;68.52;93100.47;513748;28;879;-70
2023/11/02 01:31:51;;;;;;;3.78;2.88;;;;;;;11.13;68.65;93095.66;515464;28;805;-70
2023/11/02 01:32:08;;;;;;;3.63;2.75;;;;;;;11.13;68.52;93092.88;513306;28;801;-70
2023/11/02 01:32:23;;;;;;;3.00;2.42;;;;;;;11.14;68.67;93090.88;511286;28;850;-70
2023/11/02 01:32:39;;;;;;;3.55;2.65;;;;;;;11.14;68.23;93093.63;509207;29;1973;-70
2023/11/02 01:32:54;;;;;;;3.05;2.70;;;;;;;11.13;68.60;93092.88;509566;29;786;-70
2023/11/02 01:33:36;;;;;;;2.73;2.53;;;;;;;11.13;68.34;93097.69;509287;29;808;-70
2023/11/02 01:33:53;;;;;;;2.95;2.60;;;;;;;11.14;68.58;93093.63;509241;29;908;-70
2023/11/02 01:34:18;;;;;;;2.58;2.33;;;;;;;11.14;68.43;93090.88;511203;28;871;-70
2023/11/02 01:34:33;;;;;;;4.80;2.70;;;;;;;11.13;68.62;93092.19;513395;28;904;-70
2023/11/02 01:34:49;;;;;;;4.07;2.50;;;;;;;11.12;68.51;93088.66;513338;28;812;-70